Pagrindinis puslapis
METAR-TAF:

METAR-TAF

Oro uostai :

Nairobis, Kenija

platuma: 01-19S, ilguma: 036-55E, Aukštis: 1624 m

Dabartinis oras

Ataskaita buvo paskelbta 29 minutes, ne 22:00 UTC
Vėjas 3 kt iš Vakarų/Pietvakarių
Temperatūra 16°C
Drėgmė 68%
Slėgis 1023 hPa
Matomumas 10 km arba daugiau
nėra debesų žemiau 1500 m ir nėra kamuolinių lietaus debesų

METAR: HKJK 182200Z 24003KT CAVOK 16/10 Q1023 NOSIG

Laikas: 01:29 (22:29 UTC)

Prognozė

Ataskaita buvo paskelbta 5 valandos ir 29 minutes, ne 17:00 UTC
Prognozė galioja nuo 18 metu 18 UTC su 19 metu 18 UTC
Vėjas 5 kt iš Šiaurės/Šiaurės Rytų
Matomumas 10 km arba daugiau
Išsisklaidę debesys ne aukštis 2000 ft
Tapsmas
nuo 19 metu 08 UTC su 19 metu 23 UTC
Vėjas 5 kt iš Šiaurės/Šiaurės Rytų
Išsisklaidę debesys ne aukštis 2000 ft

TAF: HKJK 181700Z 1818/1918 03005KT 9999 SCT020 BECMG 1908/1923 02005KT SCT020

Orai ataskaitas ir orų prognozės (METAR, TAF).

turimą stotys yra geltonos ir raudonos taškus žemėlapyje.

Perkelti pele per norėdami pamatyti stoties vardą.

Tada spustelėkite, norėdami matyti oro stebėjimo ir prognozės.

Norėdami pakeisti žemėlapį: spustelėkite ant žalios mygtukų su juodo kryžiaus žemyn,; žalią mygtuką su brūkšneliu, jei norite nutolinti; arba žalių rodyklių gretimoms žemėlapius.


METAR-TAF: